createdAt,value
2018-05-17T00:01:36.517Z,4.80
2018-05-17T00:04:04.118Z,4.00
2018-05-17T00:06:31.780Z,4.70
2018-05-17T00:08:59.392Z,3.73
2018-05-17T00:11:27.023Z,4.63
2018-05-17T00:13:54.638Z,3.80
2018-05-17T00:16:22.235Z,3.90
2018-05-17T00:18:49.866Z,4.53
2018-05-17T00:21:17.466Z,3.77
2018-05-17T00:23:45.210Z,3.50
2018-05-17T00:26:12.818Z,4.00
2018-05-17T00:28:40.410Z,2.50
2018-05-17T00:31:08.071Z,3.27
2018-05-17T00:33:35.667Z,3.87
2018-05-17T00:36:03.330Z,3.77
2018-05-17T00:38:30.911Z,4.73
2018-05-17T00:40:58.760Z,4.37
2018-05-17T00:43:26.350Z,3.20
2018-05-17T00:45:53.948Z,3.60
2018-05-17T00:48:21.612Z,3.50
2018-05-17T00:50:49.187Z,4.10
2018-05-17T00:53:28.466Z,4.07
2018-05-17T00:55:56.067Z,3.80
2018-05-17T00:58:23.718Z,4.03
2018-05-17T01:00:51.312Z,3.60
2018-05-17T01:03:18.909Z,3.50
2018-05-17T01:05:46.528Z,4.07
2018-05-17T01:08:14.123Z,4.53
2018-05-17T01:10:41.750Z,4.40
2018-05-17T01:13:09.365Z,4.10
2018-05-17T01:15:37.016Z,4.70
2018-05-17T01:18:04.618Z,3.93
2018-05-17T01:20:32.213Z,4.97
2018-05-17T01:23:00.706Z,4.17
2018-05-17T01:25:28.351Z,4.70
2018-05-17T01:27:55.991Z,5.07
2018-05-17T01:30:23.583Z,5.10
2018-05-17T01:32:51.186Z,5.40
2018-05-17T01:35:18.807Z,6.30
2018-05-17T01:37:58.221Z,6.43
2018-05-17T01:40:25.870Z,6.70
2018-05-17T01:42:53.467Z,5.80
2018-05-17T01:45:21.062Z,6.07
2018-05-17T01:47:48.703Z,7.30
2018-05-17T01:50:16.303Z,7.40
2018-05-17T01:52:43.926Z,8.23
2018-05-17T01:55:11.520Z,8.50
2018-05-17T01:57:39.425Z,8.97
2018-05-17T02:00:07.042Z,9.80
2018-05-17T02:02:34.690Z,9.40
2018-05-17T02:05:02.308Z,8.50
2018-05-17T02:07:29.913Z,10.00
2018-05-17T02:09:57.542Z,10.00
2018-05-17T02:12:25.160Z,10.40
2018-05-17T02:14:52.962Z,10.40
2018-05-17T02:17:20.559Z,9.83
2018-05-17T02:19:48.172Z,11.60
2018-05-17T02:22:15.860Z,11.00
2018-05-17T02:24:43.466Z,11.27
2018-05-17T02:27:11.087Z,9.70
2018-05-17T02:29:38.682Z,11.47
2018-05-17T02:32:06.460Z,10.50
2018-05-17T02:34:34.094Z,9.53
2018-05-17T02:37:01.695Z,12.03
2018-05-17T02:39:29.344Z,11.10
2018-05-17T02:41:56.947Z,11.23
2018-05-17T02:44:24.581Z,12.40
2018-05-17T02:46:52.481Z,11.90
2018-05-17T02:49:20.148Z,12.53
2018-05-17T02:51:47.760Z,12.80
2018-05-17T02:54:15.380Z,13.10
2018-05-17T02:56:43.007Z,13.90
2018-05-17T02:59:10.632Z,13.20
2018-05-17T03:01:38.251Z,13.67
2018-05-17T03:04:05.857Z,12.87
2018-05-17T03:06:33.596Z,14.10
2018-05-17T03:09:01.195Z,14.47
2018-05-17T03:11:28.817Z,13.57
2018-05-17T03:13:56.465Z,14.77
2018-05-17T03:16:24.071Z,13.10
2018-05-17T03:18:51.712Z,13.90
2018-05-17T03:21:19.324Z,14.77
2018-05-17T03:23:47.343Z,17.40
2018-05-17T03:26:14.942Z,16.20
2018-05-17T03:28:42.544Z,14.53
2018-05-17T03:31:10.178Z,15.80
2018-05-17T03:33:37.791Z,16.10
2018-05-17T03:36:05.415Z,17.20
2018-05-17T03:38:33.034Z,18.40
2018-05-17T03:41:00.856Z,16.50
2018-05-17T03:43:28.464Z,16.10
2018-05-17T03:45:56.075Z,17.27
2018-05-17T03:48:23.703Z,16.00
2018-05-17T03:50:51.405Z,16.97
2018-05-17T03:53:19.063Z,17.77
2018-05-17T03:55:46.678Z,18.50
2018-05-17T03:58:14.279Z,18.77
2018-05-17T04:00:53.723Z,19.00
2018-05-17T04:03:33.146Z,17.10
2018-05-17T04:06:12.458Z,17.47
2018-05-17T04:08:40.138Z,16.67
2018-05-17T04:11:07.880Z,17.67
2018-05-17T04:13:35.499Z,16.23
2018-05-17T04:16:03.262Z,16.07
2018-05-17T04:18:30.892Z,19.80
2018-05-17T04:20:58.506Z,18.17
2018-05-17T04:23:26.139Z,17.60
2018-05-17T04:25:53.741Z,19.87
2018-05-17T04:28:21.373Z,20.73
2018-05-17T04:30:48.988Z,22.10
2018-05-17T04:33:16.791Z,21.67
2018-05-17T04:35:44.398Z,21.37
2018-05-17T04:38:12.000Z,22.17
2018-05-17T04:40:39.661Z,22.13
2018-05-17T04:43:07.275Z,21.67
2018-05-17T04:45:34.907Z,23.93
2018-05-17T04:48:02.542Z,23.97
2018-05-17T04:50:30.531Z,20.83
2018-05-17T04:52:58.200Z,23.07
2018-05-17T04:55:25.814Z,23.83
2018-05-17T04:57:53.446Z,23.37
2018-05-17T05:00:21.055Z,23.67
2018-05-17T05:02:48.725Z,24.90
2018-05-17T05:05:16.310Z,25.40
2018-05-17T05:07:44.070Z,23.93
2018-05-17T05:10:11.720Z,23.40
2018-05-17T05:12:39.325Z,24.80
2018-05-17T05:15:06.968Z,25.43
2018-05-17T05:17:34.566Z,22.80
2018-05-17T05:20:02.198Z,24.23
2018-05-17T05:22:29.823Z,23.33
2018-05-17T05:24:57.469Z,24.50
2018-05-17T05:27:25.082Z,23.33
2018-05-17T05:29:53.672Z,26.13
2018-05-17T05:32:21.330Z,26.23
2018-05-17T05:34:48.962Z,23.70
2018-05-17T05:37:16.747Z,26.77
2018-05-17T05:39:44.357Z,26.57
2018-05-17T05:42:12.224Z,25.53
2018-05-17T05:44:39.831Z,22.90
2018-05-17T05:47:07.449Z,25.90
2018-05-17T05:49:35.179Z,25.13
2018-05-17T05:52:02.768Z,26.37
2018-05-17T05:54:30.433Z,28.00
2018-05-17T05:56:58.040Z,26.40
2018-05-17T05:59:26.019Z,24.33
2018-05-17T06:01:53.630Z,24.10
2018-05-17T06:04:21.235Z,25.63
2018-05-17T06:06:48.870Z,24.33
2018-05-17T06:09:16.501Z,25.50
2018-05-17T06:11:44.179Z,27.00
2018-05-17T06:14:11.784Z,24.80
2018-05-17T06:16:39.456Z,28.30
2018-05-17T06:19:07.070Z,28.90
2018-05-17T06:21:34.682Z,26.87
2018-05-17T06:24:02.303Z,27.87
2018-05-17T06:26:29.907Z,27.67
2018-05-17T06:28:57.552Z,26.67
2018-05-17T06:31:25.187Z,27.30
2018-05-17T06:33:53.076Z,28.10
2018-05-17T06:36:20.733Z,25.93
2018-05-17T06:38:48.351Z,25.07
2018-05-17T06:41:15.976Z,25.43
2018-05-17T06:43:43.577Z,26.30
2018-05-17T06:46:11.218Z,26.50
2018-05-17T06:48:38.830Z,26.57
2018-05-17T06:51:06.491Z,25.57
2018-05-17T06:53:34.171Z,26.77
2018-05-17T06:56:01.742Z,28.10
2018-05-17T06:58:29.460Z,24.87
2018-05-17T07:00:57.093Z,27.03
2018-05-17T07:03:24.715Z,27.30
2018-05-17T07:05:52.319Z,26.00
2018-05-17T07:08:19.972Z,27.30
2018-05-17T07:10:47.581Z,26.50
2018-05-17T07:13:15.198Z,26.53
2018-05-17T07:15:42.939Z,26.13
2018-05-17T07:18:10.700Z,28.03
2018-05-17T07:20:38.199Z,27.03
2018-05-17T07:23:05.799Z,26.87
2018-05-17T07:25:33.591Z,25.60
2018-05-17T07:28:01.198Z,25.50
2018-05-17T07:30:28.809Z,27.47
2018-05-17T07:32:56.451Z,26.10
2018-05-17T07:35:24.071Z,26.40
2018-05-17T07:37:51.695Z,27.13
2018-05-17T07:40:19.360Z,29.50
2018-05-17T07:42:47.331Z,29.80
2018-05-17T07:45:14.931Z,27.03
2018-05-17T07:47:42.536Z,28.07
2018-05-17T07:50:10.169Z,28.43
2018-05-17T07:52:37.773Z,27.40
2018-05-17T07:55:05.443Z,27.67
2018-05-17T07:57:33.103Z,26.90
2018-05-17T08:00:00.716Z,26.40
2018-05-17T08:02:28.653Z,24.90
2018-05-17T08:04:56.250Z,26.37
2018-05-17T08:07:24.066Z,24.67
2018-05-17T08:09:51.671Z,27.27
2018-05-17T08:12:19.286Z,24.40
2018-05-17T08:14:46.913Z,24.53
2018-05-17T08:17:14.510Z,25.30
2018-05-17T08:19:42.279Z,25.47
2018-05-17T08:22:09.900Z,26.57
2018-05-17T08:24:37.548Z,25.60
2018-05-17T08:27:05.171Z,25.23
2018-05-17T08:29:32.793Z,24.70
2018-05-17T08:32:00.423Z,25.07
2018-05-17T08:34:28.051Z,27.50
2018-05-17T08:36:56.579Z,25.50
2018-05-17T08:39:24.185Z,26.67
2018-05-17T08:41:52.059Z,23.37
2018-05-17T08:44:19.623Z,26.30
2018-05-17T08:46:47.222Z,23.10
2018-05-17T08:49:14.847Z,28.03
2018-05-17T08:51:42.445Z,23.90
2018-05-17T08:54:10.088Z,24.37
2018-05-17T08:56:37.700Z,24.23
2018-05-17T08:59:05.678Z,23.90
2018-05-17T09:01:33.291Z,25.57
2018-05-17T09:04:00.895Z,24.47
2018-05-17T09:06:28.540Z,23.90
2018-05-17T09:08:56.147Z,23.43
2018-05-17T09:11:23.777Z,23.80
2018-05-17T09:13:51.402Z,25.70
2018-05-17T09:16:19.524Z,21.07
2018-05-17T09:18:47.155Z,20.50
2018-05-17T09:21:14.777Z,22.20
2018-05-17T09:23:42.397Z,21.10
2018-05-17T09:26:10.190Z,23.80
2018-05-17T09:28:37.924Z,21.17
2018-05-17T09:31:05.531Z,21.00
2018-05-17T09:33:33.349Z,19.40
2018-05-17T09:36:00.965Z,20.80
2018-05-17T09:38:28.578Z,20.20
2018-05-17T09:40:56.283Z,19.47
2018-05-17T09:43:23.844Z,18.47
2018-05-17T09:45:51.479Z,20.60
2018-05-17T09:48:19.161Z,20.00
2018-05-17T09:50:46.926Z,20.27
2018-05-17T09:53:14.689Z,19.87
2018-05-17T09:55:42.457Z,18.03
2018-05-17T09:58:10.078Z,20.47
2018-05-17T10:00:43.278Z,19.33
2018-05-17T10:03:10.911Z,21.10
2018-05-17T10:05:38.507Z,21.00
2018-05-17T10:08:06.497Z,18.73
2018-05-17T10:10:34.820Z,18.40
2018-05-17T10:13:03.034Z,17.57
2018-05-17T10:18:04.473Z,17.97
2018-05-17T10:20:32.114Z,18.10
2018-05-17T10:22:59.864Z,19.43
2018-05-17T10:25:27.513Z,17.33
2018-05-17T10:27:55.127Z,18.73
2018-05-17T10:30:22.727Z,18.40
2018-05-17T10:32:50.363Z,18.33
2018-05-17T10:35:17.993Z,19.27
2018-05-17T10:37:45.615Z,19.47
2018-05-17T10:40:14.993Z,17.40
2018-05-17T10:42:43.402Z,17.97
2018-05-17T10:45:11.180Z,20.40
2018-05-17T10:47:38.794Z,18.00
2018-05-17T10:50:06.418Z,18.33
2018-05-17T10:52:34.019Z,19.80
2018-05-17T10:55:01.642Z,17.47
2018-05-17T10:57:36.375Z,16.53
2018-05-17T11:00:04.786Z,18.30
2018-05-17T11:02:32.454Z,16.10
2018-05-17T11:05:00.027Z,18.57
2018-05-17T11:07:27.644Z,17.87
2018-05-17T11:09:55.243Z,18.00
2018-05-17T11:12:22.871Z,18.17
2018-05-17T11:14:50.479Z,18.37
2018-05-17T11:17:18.148Z,18.20
2018-05-17T11:19:45.750Z,17.60
2018-05-17T11:22:13.387Z,19.07
2018-05-17T11:24:41.029Z,17.87
2018-05-17T11:27:08.655Z,18.47
2018-05-17T11:29:36.305Z,17.87
2018-05-17T11:32:03.903Z,16.20
2018-05-17T11:34:31.508Z,17.23
2018-05-17T11:36:59.153Z,17.80
2018-05-17T11:39:26.762Z,17.10
2018-05-17T11:41:54.407Z,18.73
2018-05-17T11:44:22.015Z,16.93
2018-05-17T11:46:49.620Z,17.50
2018-05-17T11:49:17.253Z,18.03
2018-05-17T11:51:44.915Z,15.70
2018-05-17T11:54:12.543Z,15.67
2018-05-17T11:56:40.163Z,15.23
2018-05-17T11:59:08.211Z,14.93
2018-05-17T12:01:35.825Z,14.03
2018-05-17T12:04:03.438Z,15.93
2018-05-17T12:06:31.303Z,13.90
2018-05-17T12:08:58.928Z,13.23
2018-05-17T12:11:26.566Z,14.67
2018-05-17T12:13:54.174Z,14.33
2018-05-17T12:16:21.912Z,15.73
2018-05-17T12:18:49.515Z,14.30
2018-05-17T12:21:17.131Z,13.87
2018-05-17T12:23:44.877Z,12.10
2018-05-17T12:26:12.482Z,12.57
2018-05-17T12:28:40.110Z,12.47
2018-05-17T12:31:07.706Z,12.00
2018-05-17T12:33:35.349Z,12.97
2018-05-17T12:36:03.415Z,11.37
2018-05-17T12:38:31.030Z,12.17
2018-05-17T12:40:58.657Z,11.60
2018-05-17T12:43:26.267Z,13.40
2018-05-17T12:45:54.305Z,12.37
2018-05-17T12:48:21.910Z,11.43
2018-05-17T12:50:49.802Z,10.70
2018-05-17T12:53:17.476Z,12.57
2018-05-17T12:55:45.097Z,11.87
2018-05-17T12:58:12.717Z,10.83
2018-05-17T13:00:40.317Z,10.20
2018-05-17T13:03:08.262Z,10.37
2018-05-17T13:05:35.857Z,9.27
2018-05-17T13:08:03.641Z,9.90
2018-05-17T13:10:31.253Z,10.83
2018-05-17T13:12:58.873Z,9.90
2018-05-17T13:15:26.527Z,10.10
2018-05-17T13:17:54.134Z,9.87
2018-05-17T13:20:21.759Z,8.40
2018-05-17T13:22:49.370Z,10.20
2018-05-17T13:25:17.040Z,10.00
2018-05-17T13:27:44.642Z,9.10
2018-05-17T13:30:12.266Z,9.63
2018-05-17T13:32:39.894Z,8.63
2018-05-17T13:35:07.515Z,9.23
2018-05-17T13:37:35.474Z,10.70
2018-05-17T13:40:03.012Z,9.60
2018-05-17T13:42:30.863Z,9.87
2018-05-17T13:44:58.457Z,11.47
2018-05-17T13:47:26.094Z,12.97
2018-05-17T13:49:53.713Z,14.43
2018-05-17T13:52:21.307Z,12.50
2018-05-17T13:54:48.933Z,14.40
2018-05-17T13:57:16.546Z,14.90
2018-05-17T13:59:44.717Z,10.80
2018-05-17T14:02:12.377Z,13.07
2018-05-17T14:04:39.935Z,11.10
2018-05-17T14:07:07.559Z,13.07
2018-05-17T14:09:35.263Z,12.47
2018-05-17T14:12:02.886Z,14.77
2018-05-17T14:14:30.507Z,13.73
2018-05-17T14:16:58.558Z,12.57
2018-05-17T14:19:26.170Z,10.83
2018-05-17T14:21:53.770Z,12.10
2018-05-17T14:24:21.416Z,12.90
2018-05-17T14:26:49.093Z,12.40
2018-05-17T14:29:16.714Z,12.80
2018-05-17T14:31:44.432Z,11.87
2018-05-17T14:51:41.686Z,11.00
2018-05-17T14:54:09.327Z,13.93
2018-05-17T14:56:36.924Z,12.67
2018-05-17T14:59:04.567Z,12.00
2018-05-17T15:01:32.168Z,13.30
2018-05-17T15:03:59.855Z,13.37
2018-05-17T15:06:27.479Z,13.83
2018-05-17T15:08:55.159Z,13.43
2018-05-17T15:11:22.870Z,11.73
2018-05-17T15:13:50.396Z,11.50
2018-05-17T15:16:18.067Z,13.07
2018-05-17T15:18:45.695Z,14.40
2018-05-17T15:21:13.307Z,12.00
2018-05-17T15:23:40.935Z,11.53
2018-05-17T15:26:08.632Z,12.00
2018-05-17T15:28:36.229Z,11.77
2018-05-17T15:31:03.842Z,14.53
2018-05-17T15:33:31.490Z,12.60
2018-05-17T15:35:59.091Z,8.50
2018-05-17T15:38:26.692Z,8.07
2018-05-17T15:40:54.315Z,7.50
2018-05-17T15:43:21.924Z,8.83
2018-05-17T15:45:49.537Z,8.53
2018-05-17T15:48:17.210Z,9.40
2018-05-17T15:50:44.791Z,7.87
2018-05-17T15:53:12.950Z,8.57
2018-05-17T15:55:41.382Z,9.43
2018-05-17T15:58:08.997Z,9.40
2018-05-17T16:00:36.597Z,8.37
2018-05-17T16:03:04.469Z,7.60
2018-05-17T16:05:32.174Z,7.37
2018-05-17T16:07:59.768Z,9.43
2018-05-17T16:10:27.382Z,7.80
2018-05-17T16:12:54.982Z,6.87
2018-05-17T16:15:23.512Z,8.77
2018-05-17T16:17:50.973Z,7.90
2018-05-17T16:20:18.976Z,7.23
2018-05-17T16:22:46.569Z,7.80
2018-05-17T16:25:14.166Z,6.60
2018-05-17T16:27:41.774Z,7.27
2018-05-17T16:30:09.371Z,7.43
2018-05-17T16:32:37.078Z,6.37
2018-05-17T16:35:04.645Z,6.67
2018-05-17T16:37:32.422Z,6.87
2018-05-17T16:40:00.036Z,5.57
2018-05-17T16:42:27.674Z,6.13
2018-05-17T16:44:55.395Z,5.80
2018-05-17T16:47:22.995Z,5.67
2018-05-17T16:49:50.643Z,4.90
2018-05-17T16:52:18.242Z,5.43
2018-05-17T16:54:45.917Z,5.40
2018-05-17T16:57:13.518Z,5.67
2018-05-17T16:59:41.185Z,4.47
2018-05-17T17:02:08.806Z,6.17
2018-05-17T17:04:36.407Z,4.97
2018-05-17T17:07:04.037Z,4.97
2018-05-17T17:09:31.640Z,5.93
2018-05-17T17:11:59.418Z,4.43
2018-05-17T17:14:27.022Z,5.23
2018-05-17T17:16:54.627Z,4.97
2018-05-17T17:19:22.242Z,4.30
2018-05-17T17:21:49.838Z,4.13
2018-05-17T17:24:17.462Z,4.27
2018-05-17T17:26:45.103Z,4.53
2018-05-17T17:29:12.919Z,4.70
2018-05-17T17:31:40.518Z,4.70
2018-05-17T17:34:08.114Z,3.90
2018-05-17T17:36:35.764Z,5.90
2018-05-17T17:39:03.348Z,4.90
2018-05-17T17:41:30.968Z,5.33
2018-05-17T17:43:58.570Z,5.00
2018-05-17T17:46:26.455Z,4.10
2018-05-17T17:48:54.058Z,4.17
2018-05-17T17:51:21.675Z,3.87
2018-05-17T17:53:49.348Z,4.70
2018-05-17T17:56:16.943Z,4.07
2018-05-17T17:58:44.568Z,4.00
2018-05-17T18:01:12.243Z,3.93
2018-05-17T18:03:39.892Z,4.43
2018-05-17T18:06:07.484Z,4.30
2018-05-17T18:08:35.083Z,4.33
2018-05-17T18:11:02.712Z,4.47
2018-05-17T18:13:30.315Z,3.77
2018-05-17T18:15:57.988Z,4.73
2018-05-17T18:18:25.998Z,5.33
2018-05-17T18:20:53.625Z,4.50
2018-05-17T18:23:21.258Z,4.20
2018-05-17T18:25:48.879Z,4.53
2018-05-17T18:28:16.516Z,4.10
2018-05-17T18:30:44.114Z,3.80
2018-05-17T18:33:11.714Z,5.10
2018-05-17T18:35:39.337Z,4.80
2018-05-17T18:38:06.934Z,5.07
2018-05-17T18:40:34.554Z,4.50
2018-05-17T18:43:02.182Z,4.30
2018-05-17T18:45:30.226Z,5.37
2018-05-17T18:47:57.834Z,4.90
2018-05-17T18:50:25.437Z,4.97
2018-05-17T18:52:53.062Z,4.47
2018-05-17T18:55:22.917Z,5.10
2018-05-17T18:57:48.307Z,3.63
2018-05-17T19:00:15.984Z,3.97
2018-05-17T19:02:44.069Z,4.37
2018-05-17T19:05:11.665Z,5.07
2018-05-17T19:07:39.254Z,4.10
2018-05-17T19:10:06.880Z,4.37
2018-05-17T19:12:34.475Z,5.17
2018-05-17T19:15:02.120Z,3.77
2018-05-17T19:17:29.827Z,3.93
2018-05-17T19:19:57.575Z,4.50
2018-05-17T19:22:25.167Z,4.50
2018-05-17T19:24:52.762Z,4.13
2018-05-17T19:27:20.381Z,4.47
2018-05-17T19:29:47.991Z,4.60
2018-05-17T19:32:15.611Z,4.50
2018-05-17T19:34:43.368Z,4.10
2018-05-17T19:37:11.373Z,5.17
2018-05-17T19:39:38.906Z,5.00
2018-05-17T19:42:06.502Z,4.23
2018-05-17T19:44:34.122Z,5.23
2018-05-17T19:47:01.720Z,5.07
2018-05-17T19:49:29.352Z,4.87
2018-05-17T19:51:56.948Z,4.77
2018-05-17T19:54:24.813Z,6.10
2018-05-17T19:56:52.427Z,4.60
2018-05-17T19:59:20.160Z,5.20
2018-05-17T20:01:47.727Z,4.73
2018-05-17T20:04:15.335Z,4.50
2018-05-17T20:06:42.948Z,4.80
2018-05-17T20:09:10.570Z,6.10
2018-05-17T20:11:38.459Z,5.70
2018-05-17T20:14:06.071Z,6.50
2018-05-17T20:16:33.670Z,4.70
2018-05-17T20:19:01.308Z,5.20
2018-05-17T20:21:28.908Z,6.23
2018-05-17T20:23:56.557Z,5.90
2018-05-17T20:26:24.158Z,6.83
2018-05-17T20:28:51.802Z,6.70
2018-05-17T20:31:19.400Z,5.70
2018-05-17T20:33:46.996Z,6.63
2018-05-17T20:36:14.626Z,6.60
2018-05-17T20:38:42.240Z,6.47
2018-05-17T20:41:09.859Z,7.43
2018-05-17T20:43:37.800Z,6.10
2018-05-17T20:46:05.949Z,5.80
2018-05-17T20:48:33.553Z,7.80
2018-05-17T20:51:01.150Z,7.20
2018-05-17T20:53:28.817Z,14.53
2018-05-17T20:55:56.410Z,6.07
2018-05-17T20:58:24.051Z,6.17
2018-05-17T21:00:51.648Z,7.37
2018-05-17T21:03:19.330Z,7.13
2018-05-17T21:05:46.930Z,8.50
2018-05-17T21:08:14.536Z,8.23
2018-05-17T21:10:42.149Z,7.60
2018-05-17T21:13:09.929Z,7.30
2018-05-17T21:15:37.564Z,8.20
2018-05-17T21:18:05.175Z,8.47
2018-05-17T21:20:33.016Z,7.90
2018-05-17T21:23:00.668Z,7.90
2018-05-17T21:25:28.262Z,7.60
2018-05-17T21:27:55.883Z,7.43
2018-05-17T21:30:23.497Z,7.80
2018-05-17T21:32:51.135Z,7.60
2018-05-17T21:35:18.840Z,8.37
2018-05-17T21:37:46.440Z,9.80
2018-05-17T21:40:14.079Z,8.53
2018-05-17T21:42:41.682Z,8.50
2018-05-17T21:45:09.526Z,8.17
2018-05-17T21:47:37.119Z,8.40
2018-05-17T21:50:04.783Z,8.33
2018-05-17T21:52:32.695Z,6.73
2018-05-17T21:55:00.445Z,9.30
2018-05-17T21:57:28.068Z,7.43
2018-05-17T21:59:55.666Z,7.70
2018-05-17T22:02:23.341Z,8.43
2018-05-17T22:04:50.930Z,8.73
2018-05-17T22:07:18.527Z,7.60
2018-05-17T22:09:46.152Z,7.77
2018-05-17T22:12:13.819Z,7.90
2018-05-17T22:14:41.440Z,7.83
2018-05-17T22:17:09.031Z,8.47
2018-05-17T22:19:36.930Z,8.70
2018-05-17T22:22:04.523Z,8.67
2018-05-17T22:24:32.111Z,8.20
2018-05-17T22:26:59.724Z,8.77
2018-05-17T22:29:27.321Z,9.40
2018-05-17T22:31:54.971Z,9.30
2018-05-17T22:34:22.561Z,8.90
2018-05-17T22:36:50.220Z,9.33
2018-05-17T22:39:17.816Z,9.27
2018-05-17T22:41:45.418Z,9.90
2018-05-17T22:44:13.048Z,9.20
2018-05-17T22:46:40.646Z,8.67
2018-05-17T22:49:08.267Z,8.60
2018-05-17T22:51:35.870Z,9.37
2018-05-17T22:54:03.543Z,9.97
2018-05-17T22:56:42.926Z,8.80
2018-05-17T22:59:10.809Z,8.77
2018-05-17T23:01:38.382Z,8.93
2018-05-17T23:04:05.985Z,10.70
2018-05-17T23:06:33.615Z,10.20
2018-05-17T23:09:01.216Z,10.50
2018-05-17T23:11:28.891Z,11.97
2018-05-17T23:13:56.466Z,11.43
2018-05-17T23:16:24.124Z,10.77
2018-05-17T23:18:52.007Z,12.17
2018-05-17T23:21:19.603Z,11.03
2018-05-17T23:23:47.231Z,11.27
2018-05-17T23:26:14.851Z,9.53
2018-05-17T23:28:42.475Z,10.30
2018-05-17T23:31:10.088Z,9.67
2018-05-17T23:33:38.151Z,9.00
2018-05-17T23:36:05.747Z,8.60
2018-05-17T23:38:33.342Z,7.90
2018-05-17T23:41:12.710Z,8.60
2018-05-17T23:43:40.298Z,8.43
2018-05-17T23:46:07.915Z,9.63
2018-05-17T23:48:35.512Z,9.67
2018-05-17T23:51:03.358Z,9.03
2018-05-17T23:53:30.954Z,9.57
2018-05-17T23:55:58.554Z,9.33
2018-05-17T23:58:26.170Z,9.73
